createdAt,value
2023-12-11T00:01:41.872Z,98516.92
2023-12-11T00:04:10.635Z,98509.83
2023-12-11T00:06:38.992Z,98498.88
2023-12-11T00:09:07.533Z,98496.54
2023-12-11T00:11:35.788Z,98495.55
2023-12-11T00:14:04.158Z,98494.91
2023-12-11T00:16:32.490Z,98494.40
2023-12-11T00:19:00.827Z,98489.91
2023-12-11T00:21:30.302Z,98488.27
2023-12-11T00:23:58.717Z,98494.17
2023-12-11T00:26:26.971Z,98495.14
2023-12-11T00:28:55.239Z,98493.73
2023-12-11T00:31:24.411Z,98492.62
2023-12-11T00:33:52.893Z,98488.02
2023-12-11T00:36:21.165Z,98483.65
2023-12-11T00:38:54.414Z,98479.30
2023-12-11T00:41:24.212Z,98477.55
2023-12-11T00:43:52.692Z,98480.71
2023-12-11T00:46:23.314Z,98481.16
2023-12-11T00:48:52.002Z,98479.92
2023-12-11T00:51:22.018Z,98473.70
2023-12-11T00:53:50.478Z,98471.23
2023-12-11T00:56:18.814Z,98468.96
2023-12-11T00:58:47.108Z,98467.05
2023-12-11T01:01:15.408Z,98460.56
2023-12-11T01:03:43.949Z,98455.45
2023-12-11T01:06:12.439Z,98449.31
2023-12-11T01:08:41.257Z,98438.39
2023-12-11T01:11:10.151Z,98439.42
2023-12-11T01:13:39.950Z,98438.57
2023-12-11T01:16:08.503Z,98434.43
2023-12-11T01:18:37.068Z,98433.42
2023-12-11T01:21:05.751Z,98428.18
2023-12-11T01:23:33.966Z,98425.40
2023-12-11T01:26:02.299Z,98428.04
2023-12-11T01:28:30.721Z,98422.83
2023-12-11T01:30:59.051Z,98423.95
2023-12-11T01:33:27.444Z,98423.85
2023-12-11T01:35:55.775Z,98427.17
2023-12-11T01:38:24.141Z,98420.16
2023-12-11T01:40:53.516Z,98420.55
2023-12-11T01:43:22.096Z,98419.02
2023-12-11T01:46:19.490Z,98415.75
2023-12-11T01:48:53.189Z,98418.55
2023-12-11T01:51:22.023Z,98419.79
2023-12-11T01:53:52.935Z,98414.31
2023-12-11T01:56:22.700Z,98404.06
2023-12-11T01:58:51.945Z,98400.81
2023-12-11T02:01:24.838Z,98396.31
2023-12-11T02:03:53.556Z,98392.77
2023-12-11T02:06:22.864Z,98395.03
2023-12-11T02:08:52.291Z,98390.44
2023-12-11T02:11:21.667Z,98386.55
2023-12-11T02:13:49.982Z,98385.11
2023-12-11T02:16:18.407Z,98387.50
2023-12-11T02:18:46.906Z,98389.85
2023-12-11T02:21:15.639Z,98387.69
2023-12-11T02:24:00.079Z,98385.87
2023-12-11T02:26:28.633Z,98377.83
2023-12-11T02:29:00.395Z,98371.75
2023-12-11T02:31:28.703Z,98365.14
2023-12-11T02:33:57.229Z,98356.94
2023-12-11T02:36:25.769Z,98349.02
2023-12-11T02:38:54.040Z,98347.84
2023-12-11T02:41:22.456Z,98340.05
2023-12-11T02:43:50.712Z,98338.58
2023-12-11T02:46:18.999Z,98337.12
2023-12-11T02:48:47.536Z,98338.56
2023-12-11T02:51:17.879Z,98334.09
2023-12-11T02:53:47.044Z,98331.16
2023-12-11T02:56:15.413Z,98330.36
2023-12-11T02:58:45.513Z,98332.15
2023-12-11T03:01:14.037Z,98333.23
2023-12-11T03:03:42.864Z,98337.60
2023-12-11T03:06:19.694Z,98337.53
2023-12-11T03:08:48.151Z,98333.48
2023-12-11T03:11:16.536Z,98330.52
2023-12-11T03:13:46.836Z,98326.89
2023-12-11T03:16:17.439Z,98322.51
2023-12-11T03:18:46.068Z,98318.70
2023-12-11T03:21:15.248Z,98318.25
2023-12-11T03:23:43.631Z,98316.71
2023-12-11T03:26:12.205Z,98312.21
2023-12-11T03:28:40.488Z,98312.81
2023-12-11T03:31:08.826Z,98309.67
2023-12-11T03:33:37.145Z,98310.92
2023-12-11T03:36:05.969Z,98307.29
2023-12-11T03:38:34.338Z,98305.08
2023-12-11T03:41:02.755Z,98298.49
2023-12-11T03:43:31.026Z,98297.27
2023-12-11T03:46:01.369Z,98292.96
2023-12-11T03:48:30.580Z,98293.92
2023-12-11T03:50:59.307Z,98293.29
2023-12-11T03:53:27.725Z,98294.75
2023-12-11T03:55:56.021Z,98304.11
2023-12-11T03:58:24.241Z,98298.61
2023-12-11T04:00:52.860Z,98302.67
2023-12-11T04:03:21.437Z,98299.02
2023-12-11T04:05:49.782Z,98296.41
2023-12-11T04:08:18.240Z,98300.82
2023-12-11T04:10:46.603Z,98301.91
2023-12-11T04:13:15.750Z,98307.90
2023-12-11T04:15:44.293Z,98308.83
2023-12-11T04:18:12.812Z,98298.29
2023-12-11T04:20:41.243Z,98281.98
2023-12-11T04:23:09.919Z,98278.71
2023-12-11T04:25:38.246Z,98288.89
2023-12-11T04:28:06.593Z,98280.48
2023-12-11T04:30:35.709Z,98269.27
2023-12-11T04:33:04.181Z,98258.41
2023-12-11T04:35:32.665Z,98254.40
2023-12-11T04:38:01.053Z,98246.55
2023-12-11T04:40:29.415Z,98247.27
2023-12-11T04:42:57.824Z,98238.99
2023-12-11T04:45:26.167Z,98238.29
2023-12-11T04:47:54.557Z,98220.53
2023-12-11T04:50:22.964Z,98223.86
2023-12-11T04:52:51.346Z,98218.04
2023-12-11T04:55:19.724Z,98209.98
2023-12-11T04:57:48.243Z,98211.41
2023-12-11T05:00:18.389Z,98214.04
2023-12-11T05:02:46.826Z,98203.18
2023-12-11T05:05:17.529Z,98204.24
2023-12-11T05:07:46.053Z,98197.56
2023-12-11T05:10:14.625Z,98183.17
2023-12-11T05:12:43.072Z,98161.65
2023-12-11T05:15:11.646Z,98147.42
2023-12-11T05:17:39.901Z,98135.02
2023-12-11T05:20:09.082Z,98130.29
2023-12-11T05:22:37.966Z,98131.85
2023-12-11T05:25:07.070Z,98137.98
2023-12-11T05:27:35.437Z,98132.16
2023-12-11T05:30:04.244Z,98128.80
2023-12-11T05:32:32.818Z,98126.42
2023-12-11T05:35:01.094Z,98118.52
2023-12-11T05:37:29.764Z,98121.98
2023-12-11T05:40:20.573Z,98121.09
2023-12-11T05:42:46.879Z,98120.72
2023-12-11T05:45:15.429Z,98124.17
2023-12-11T05:47:43.949Z,98116.09
2023-12-11T05:50:13.510Z,98122.82
2023-12-11T05:52:41.976Z,98128.67
2023-12-11T05:55:10.443Z,98135.60
2023-12-11T05:57:38.904Z,98143.02
2023-12-11T06:00:08.037Z,98145.39
2023-12-11T06:02:36.854Z,98141.94
2023-12-11T06:05:05.763Z,98144.45
2023-12-11T06:07:34.363Z,98148.90
2023-12-11T06:10:04.438Z,98156.88
2023-12-11T06:12:33.818Z,98158.33
2023-12-11T06:15:02.209Z,98159.33
2023-12-11T06:17:30.937Z,98173.13
2023-12-11T06:20:00.772Z,98177.95
2023-12-11T06:22:29.248Z,98177.89
2023-12-11T06:24:57.688Z,98171.42
2023-12-11T06:27:29.346Z,98180.59
2023-12-11T06:29:57.917Z,98176.30
2023-12-11T06:32:26.642Z,98178.45
2023-12-11T06:34:56.301Z,98168.84
2023-12-11T06:37:25.495Z,98163.27
2023-12-11T06:39:53.984Z,98160.38
2023-12-11T06:42:22.453Z,98159.73
2023-12-11T06:44:51.023Z,98157.20
2023-12-11T06:47:19.423Z,98147.34
2023-12-11T06:49:48.265Z,98152.56
2023-12-11T06:52:17.236Z,98153.40
2023-12-11T06:54:45.780Z,98154.95
2023-12-11T06:57:14.318Z,98159.34
2023-12-11T06:59:42.656Z,98141.74
2023-12-11T07:02:11.165Z,98135.17
2023-12-11T07:04:43.340Z,98143.11
2023-12-11T07:07:11.877Z,98153.44
2023-12-11T07:09:40.475Z,98157.56
2023-12-11T07:12:09.355Z,98161.02
2023-12-11T07:14:37.618Z,98164.45
2023-12-11T07:17:06.167Z,98165.83
2023-12-11T07:19:34.529Z,98168.84
2023-12-11T07:22:02.931Z,98162.00
2023-12-11T07:24:31.368Z,98159.41
2023-12-11T07:27:00.777Z,98158.42
2023-12-11T07:29:29.136Z,98153.73
2023-12-11T07:31:57.605Z,98152.25
2023-12-11T07:34:26.268Z,98156.05
2023-12-11T07:36:55.367Z,98160.80
2023-12-11T07:39:23.911Z,98158.93
2023-12-11T07:41:52.272Z,98162.23
2023-12-11T07:44:20.632Z,98165.47
2023-12-11T07:46:48.924Z,98168.19
2023-12-11T07:49:17.449Z,98174.58
2023-12-11T07:51:46.037Z,98171.04
2023-12-11T07:54:14.464Z,98173.25
2023-12-11T07:56:42.875Z,98167.11
2023-12-11T07:59:12.097Z,98172.21
2023-12-11T08:01:40.753Z,98173.35
2023-12-11T08:04:09.653Z,98172.45
2023-12-11T08:06:44.980Z,98168.27
2023-12-11T08:09:14.737Z,98166.52
2023-12-11T08:11:43.640Z,98164.66
2023-12-11T08:14:11.972Z,98161.51
2023-12-11T08:16:40.404Z,98153.20
2023-12-11T08:19:09.010Z,98147.97
2023-12-11T08:21:37.454Z,98146.06
2023-12-11T08:24:06.265Z,98144.09
2023-12-11T08:26:34.604Z,98141.71
2023-12-11T08:29:02.996Z,98142.59
2023-12-11T08:31:31.838Z,98144.69
2023-12-11T08:34:00.394Z,98140.95
2023-12-11T08:36:29.154Z,98137.21
2023-12-11T08:38:57.587Z,98131.38
2023-12-11T08:41:26.023Z,98130.03
2023-12-11T08:43:54.584Z,98128.66
2023-12-11T08:46:23.531Z,98128.02
2023-12-11T08:48:52.119Z,98122.69
2023-12-11T08:51:21.035Z,98120.40
2023-12-11T08:53:49.396Z,98116.84
2023-12-11T08:56:21.015Z,98116.17
2023-12-11T08:58:49.436Z,98110.20
2023-12-11T09:01:19.010Z,98115.98
2023-12-11T09:03:47.806Z,98113.95
2023-12-11T09:06:16.420Z,98109.61
2023-12-11T09:08:45.152Z,98114.48
2023-12-11T09:11:13.513Z,98114.59
2023-12-11T09:13:42.355Z,98117.45
2023-12-11T09:16:10.816Z,98119.48
2023-12-11T09:18:39.424Z,98119.52
2023-12-11T09:21:07.833Z,98113.02
2023-12-11T09:23:36.289Z,98111.48
2023-12-11T09:26:04.966Z,98108.31
2023-12-11T09:28:41.340Z,98107.39
2023-12-11T09:31:20.578Z,98105.17
2023-12-11T09:33:49.331Z,98099.06
2023-12-11T09:36:19.901Z,98095.26
2023-12-11T09:38:50.846Z,98095.42
2023-12-11T09:41:19.823Z,98094.94
2023-12-11T09:43:50.054Z,98090.20
2023-12-11T09:46:19.786Z,98085.17
2023-12-11T09:48:49.712Z,98083.63
2023-12-11T09:54:14.914Z,98086.52
2023-12-11T09:56:44.969Z,98091.04
2023-12-11T09:59:14.831Z,98092.59
2023-12-11T10:01:43.382Z,98087.61
2023-12-11T10:04:11.769Z,98082.13
2023-12-11T10:06:41.123Z,98078.06
2023-12-11T10:09:27.446Z,98072.64
2023-12-11T10:12:01.073Z,98066.83
2023-12-11T10:14:31.637Z,98066.52
2023-12-11T10:17:16.777Z,98064.46
2023-12-11T10:19:45.326Z,98061.60
2023-12-11T10:22:28.684Z,98057.42
2023-12-11T10:24:58.430Z,98049.57
2023-12-11T10:27:28.652Z,98042.41
2023-12-11T10:30:26.905Z,98043.65
2023-12-11T10:33:02.953Z,98043.27
2023-12-11T10:35:32.442Z,98043.09
2023-12-11T10:38:02.486Z,98041.61
2023-12-11T10:40:42.068Z,98037.74
2023-12-11T10:43:10.601Z,98040.11
2023-12-11T10:45:39.397Z,98042.02
2023-12-11T10:48:08.423Z,98039.08
2023-12-11T10:50:37.971Z,98041.12
2023-12-11T10:53:08.592Z,98038.61
2023-12-11T10:55:41.448Z,98041.62
2023-12-11T10:58:10.670Z,98036.63
2023-12-11T11:00:40.016Z,98040.70
2023-12-11T11:03:12.125Z,98038.16
2023-12-11T11:05:42.551Z,98039.05
2023-12-11T11:08:16.908Z,98038.54
2023-12-11T11:11:10.401Z,98039.86
2023-12-11T11:14:00.560Z,98040.21
2023-12-11T11:16:54.777Z,98037.76
2023-12-11T11:19:25.710Z,98036.75
2023-12-11T11:22:07.950Z,98037.23
2023-12-11T11:24:36.835Z,98039.63
2023-12-11T11:27:51.706Z,98039.77
2023-12-11T11:30:50.133Z,98035.66
2023-12-11T11:33:19.085Z,98032.59
2023-12-11T11:35:48.081Z,98032.73
2023-12-11T11:38:21.459Z,98030.62
2023-12-11T11:40:52.566Z,98027.63
2023-12-11T11:43:21.427Z,98027.77
2023-12-11T11:45:57.088Z,98022.83
2023-12-11T11:48:42.472Z,98017.26
2023-12-11T11:51:10.978Z,98013.83
2023-12-11T11:53:41.159Z,98010.23
2023-12-11T11:56:10.827Z,98010.67
2023-12-11T11:58:39.313Z,98012.08
2023-12-11T12:01:08.060Z,98016.14
2023-12-11T12:03:44.210Z,98013.37
2023-12-11T12:06:15.144Z,98014.13
2023-12-11T12:08:43.766Z,98012.23
2023-12-11T12:11:13.139Z,98011.56
2023-12-11T12:13:41.807Z,98010.59
2023-12-11T12:16:10.363Z,98005.41
2023-12-11T12:18:50.348Z,98002.39
2023-12-11T12:21:18.988Z,98001.35
2023-12-11T12:24:06.183Z,98000.70
2023-12-11T12:26:37.327Z,98004.73
2023-12-11T12:29:06.275Z,98003.91
2023-12-11T12:31:35.193Z,97996.27
2023-12-11T12:34:04.442Z,97991.33
2023-12-11T12:36:33.296Z,97984.02
2023-12-11T12:39:02.055Z,97979.37
2023-12-11T12:41:31.887Z,97975.39
2023-12-11T12:44:02.706Z,97977.30
2023-12-11T12:46:44.371Z,97977.61
2023-12-11T12:49:17.767Z,97976.10
2023-12-11T12:51:54.383Z,97967.35
2023-12-11T12:54:22.871Z,97967.25
2023-12-11T12:56:56.916Z,97963.36
2023-12-11T12:59:27.046Z,97962.30
2023-12-11T13:01:55.549Z,97960.36
2023-12-11T13:04:25.419Z,97962.67
2023-12-11T13:06:54.018Z,97961.84
2023-12-11T13:09:33.950Z,97968.78
2023-12-11T13:12:04.366Z,97967.71
2023-12-11T13:14:32.828Z,97968.05
2023-12-11T13:17:01.035Z,97963.59
2023-12-11T13:19:29.448Z,97965.19
2023-12-11T13:21:58.169Z,97966.98
2023-12-11T13:24:26.577Z,97963.95
2023-12-11T13:26:55.293Z,97959.89
2023-12-11T13:29:23.724Z,97957.76
2023-12-11T13:31:53.760Z,97954.48
2023-12-11T13:34:22.328Z,97957.61
2023-12-11T13:36:50.770Z,97957.98
2023-12-11T13:39:19.280Z,97956.09
2023-12-11T13:41:47.775Z,97957.52
2023-12-11T13:44:16.467Z,97959.05
2023-12-11T13:46:46.615Z,97964.02
2023-12-11T13:49:15.078Z,97962.43
2023-12-11T13:51:43.695Z,97957.70
2023-12-11T13:54:12.123Z,97953.64
2023-12-11T13:56:40.466Z,97946.34
2023-12-11T13:59:08.854Z,97948.34
2023-12-11T14:01:37.968Z,97942.91
2023-12-11T14:04:06.466Z,97947.92
2023-12-11T14:06:35.330Z,97950.70
2023-12-11T14:09:05.018Z,97949.46
2023-12-11T14:11:33.539Z,97956.86
2023-12-11T14:14:02.039Z,97964.73
2023-12-11T14:16:30.508Z,97969.39
2023-12-11T14:18:59.086Z,97976.95
2023-12-11T14:21:27.654Z,97981.36
2023-12-11T14:23:56.130Z,97984.42
2023-12-11T14:26:24.511Z,97985.43
2023-12-11T14:28:53.092Z,97979.98
2023-12-11T14:31:21.494Z,97982.79
2023-12-11T14:33:50.230Z,97981.91
2023-12-11T14:36:25.096Z,97980.73
2023-12-11T14:38:55.739Z,97978.66
2023-12-11T14:41:24.081Z,97983.86
2023-12-11T14:43:52.444Z,97994.04
2023-12-11T14:46:21.051Z,97997.27
2023-12-11T14:48:49.599Z,98001.40
2023-12-11T14:51:18.023Z,98003.83
2023-12-11T14:53:46.447Z,98004.05
2023-12-11T14:56:15.021Z,98003.77
2023-12-11T14:58:44.153Z,98005.15
2023-12-11T15:01:13.781Z,97999.69
2023-12-11T15:03:43.143Z,97994.17
2023-12-11T15:06:11.686Z,97993.55
2023-12-11T15:08:41.204Z,97995.02
2023-12-11T15:11:10.215Z,97996.83
2023-12-11T15:13:38.656Z,97997.77
2023-12-11T15:16:08.730Z,97996.77
2023-12-11T15:18:37.315Z,98000.70
2023-12-11T15:21:05.993Z,98003.58
2023-12-11T15:23:34.748Z,97994.07
2023-12-11T15:26:04.776Z,97990.64
2023-12-11T15:28:33.176Z,97986.35
2023-12-11T15:31:12.989Z,97979.39
2023-12-11T15:34:14.062Z,97973.20
2023-12-11T15:36:42.646Z,97973.67
2023-12-11T15:39:11.287Z,97979.27
2023-12-11T15:41:39.768Z,97983.20
2023-12-11T15:44:08.228Z,97981.33
2023-12-11T15:46:47.114Z,97981.23
2023-12-11T15:49:19.639Z,97984.98
2023-12-11T15:51:53.546Z,97987.36
2023-12-11T15:54:21.939Z,97989.59
2023-12-11T15:56:50.628Z,97996.43
2023-12-11T15:59:19.199Z,98001.36
2023-12-11T16:01:47.623Z,98005.74
2023-12-11T16:04:16.118Z,98005.86
2023-12-11T16:06:44.725Z,98010.67
2023-12-11T16:09:13.530Z,98010.20
2023-12-11T16:11:42.081Z,98007.17
2023-12-11T16:14:10.377Z,98006.72
2023-12-11T16:16:40.813Z,98007.56
2023-12-11T16:19:17.351Z,98005.80
2023-12-11T16:21:45.848Z,98002.74
2023-12-11T16:24:14.315Z,98002.61
2023-12-11T16:26:42.653Z,97999.66
2023-12-11T16:29:10.940Z,97992.03
2023-12-11T16:31:40.201Z,97991.40
2023-12-11T16:34:08.729Z,97988.23
2023-12-11T16:36:37.162Z,97989.74
2023-12-11T16:39:06.178Z,97987.88
2023-12-11T16:41:34.542Z,97979.54
2023-12-11T16:44:05.702Z,97973.99
2023-12-11T16:46:34.284Z,97970.92
2023-12-11T16:49:04.467Z,97967.59
2023-12-11T16:51:38.146Z,97973.34
2023-12-11T16:54:07.382Z,97967.31
2023-12-11T16:56:35.892Z,97960.76
2023-12-11T16:59:04.183Z,97961.27
2023-12-11T17:01:32.650Z,97956.91
2023-12-11T17:04:01.540Z,97958.67
2023-12-11T17:06:31.680Z,97961.70
2023-12-11T17:09:00.621Z,97954.06
2023-12-11T17:11:34.819Z,97956.14
2023-12-11T17:14:04.089Z,97952.58
2023-12-11T17:16:32.405Z,97949.98
2023-12-11T17:19:01.082Z,97950.54
2023-12-11T17:21:33.946Z,97947.77
2023-12-11T17:24:04.807Z,97943.63
2023-12-11T17:26:33.367Z,97946.50
2023-12-11T17:29:01.785Z,97947.77
2023-12-11T17:31:30.249Z,97948.71
2023-12-11T17:33:58.869Z,97947.67
2023-12-11T17:36:27.633Z,97950.35
2023-12-11T17:38:58.250Z,97946.80
2023-12-11T17:41:27.614Z,97943.52
2023-12-11T17:43:55.957Z,97946.27
2023-12-11T17:46:24.342Z,97942.06
2023-12-11T17:48:52.874Z,97935.91
2023-12-11T17:51:21.364Z,97930.90
2023-12-11T17:53:49.688Z,97927.63
2023-12-11T17:56:18.196Z,97925.60
2023-12-11T17:58:46.723Z,97921.30
2023-12-11T18:01:15.184Z,97919.78
2023-12-11T18:03:43.583Z,97918.71
2023-12-11T18:06:19.505Z,97914.38
2023-12-11T18:08:48.051Z,97909.65
2023-12-11T18:11:16.459Z,97911.63
2023-12-11T18:13:46.138Z,97909.88
2023-12-11T18:16:15.180Z,97913.91
2023-12-11T18:18:44.522Z,97915.80
2023-12-11T18:21:13.082Z,97913.27
2023-12-11T18:23:41.551Z,97912.94
2023-12-11T18:26:13.126Z,97910.33
2023-12-11T18:28:41.615Z,97914.59
2023-12-11T18:31:10.213Z,97911.13
2023-12-11T18:33:39.790Z,97909.37
2023-12-11T18:36:08.619Z,97906.04
2023-12-11T18:38:37.675Z,97900.73
2023-12-11T18:41:06.739Z,97898.38
2023-12-11T18:43:37.181Z,97893.50
2023-12-11T18:46:05.999Z,97893.16
2023-12-11T18:48:34.398Z,97879.27
2023-12-11T18:51:02.859Z,97888.55
2023-12-11T18:53:31.214Z,97884.80
2023-12-11T18:56:01.914Z,97880.58
2023-12-11T18:58:30.920Z,97882.77
2023-12-11T19:01:01.225Z,97886.27
2023-12-11T19:03:29.963Z,97885.15
2023-12-11T19:05:58.809Z,97883.91
2023-12-11T19:08:27.271Z,97882.39
2023-12-11T19:10:55.796Z,97880.77
2023-12-11T19:13:24.699Z,97886.55
2023-12-11T19:15:53.426Z,97885.25
2023-12-11T19:18:24.061Z,97886.10
2023-12-11T19:20:53.448Z,97883.02
2023-12-11T19:23:22.952Z,97874.67
2023-12-11T19:25:54.193Z,97874.98
2023-12-11T19:28:23.909Z,97878.48
2023-12-11T19:30:52.658Z,97876.30
2023-12-11T19:33:22.100Z,97874.30
2023-12-11T19:35:50.985Z,97877.69
2023-12-11T19:38:19.592Z,97880.33
2023-12-11T19:40:48.156Z,97881.76
2023-12-11T19:43:16.578Z,97879.91
2023-12-11T19:45:48.053Z,97883.90
2023-12-11T19:48:18.909Z,97887.98
2023-12-11T19:50:47.650Z,97888.59
2023-12-11T19:53:18.172Z,97890.73
2023-12-11T19:55:46.828Z,97888.88
2023-12-11T19:58:15.293Z,97888.92
2023-12-11T20:00:43.785Z,97891.21
2023-12-11T20:03:12.279Z,97890.19
2023-12-11T20:05:40.817Z,97893.61
2023-12-11T20:08:09.217Z,97887.23
2023-12-11T20:10:37.820Z,97887.83
2023-12-11T20:13:06.323Z,97890.35
2023-12-11T20:15:35.220Z,97893.63
2023-12-11T20:18:04.186Z,97894.52
2023-12-11T20:20:32.600Z,97892.23
2023-12-11T20:23:01.133Z,97892.04
2023-12-11T20:25:29.658Z,97891.86
2023-12-11T20:27:58.363Z,97887.52
2023-12-11T20:30:27.265Z,97887.47
2023-12-11T20:32:55.814Z,97883.49
2023-12-11T20:35:24.730Z,97875.88
2023-12-11T20:37:53.096Z,97874.52
2023-12-11T20:40:21.487Z,97876.36
2023-12-11T20:42:50.084Z,97877.59
2023-12-11T20:45:20.110Z,97874.48
2023-12-11T20:47:49.777Z,97869.50
2023-12-11T20:50:18.516Z,97870.30
2023-12-11T20:52:47.021Z,97867.83
2023-12-11T20:55:15.931Z,97866.27
2023-12-11T20:57:44.481Z,97871.48
2023-12-11T21:00:13.647Z,97871.92
2023-12-11T21:02:43.778Z,97870.24
2023-12-11T21:05:12.394Z,97869.20
2023-12-11T21:07:42.793Z,97866.98
2023-12-11T21:10:11.745Z,97865.98
2023-12-11T21:12:40.400Z,97867.65
2023-12-11T21:15:09.280Z,97867.06
2023-12-11T21:17:41.701Z,97871.83
2023-12-11T21:20:10.903Z,97881.75
2023-12-11T21:22:40.992Z,97883.81
2023-12-11T21:25:09.667Z,97884.84
2023-12-11T21:27:38.254Z,97889.10
2023-12-11T21:30:09.773Z,97890.95
2023-12-11T21:32:42.946Z,97888.56
2023-12-11T21:35:11.422Z,97886.43
2023-12-11T21:37:40.559Z,97890.11
2023-12-11T21:40:09.437Z,97887.58
2023-12-11T21:42:37.974Z,97890.89
2023-12-11T21:45:06.898Z,97890.38
2023-12-11T21:47:35.648Z,97894.45
2023-12-11T21:50:05.967Z,97892.39
2023-12-11T21:52:34.425Z,97889.10
2023-12-11T21:55:02.890Z,97892.15
2023-12-11T21:57:31.512Z,97892.83
2023-12-11T22:00:00.139Z,97895.91
2023-12-11T22:02:28.560Z,97897.59
2023-12-11T22:04:57.263Z,97896.11
2023-12-11T22:07:25.692Z,97894.93
2023-12-11T22:09:54.172Z,97897.89
2023-12-11T22:12:28.450Z,97898.21
2023-12-11T22:14:56.916Z,97896.89
2023-12-11T22:17:25.446Z,97895.34
2023-12-11T22:19:53.865Z,97896.93
2023-12-11T22:22:22.366Z,97898.84
2023-12-11T22:24:50.879Z,97898.52
2023-12-11T22:27:19.141Z,97893.78
2023-12-11T22:29:48.834Z,97894.71
2023-12-11T22:32:17.566Z,97897.60
2023-12-11T22:34:45.974Z,97897.63
2023-12-11T22:37:17.195Z,97899.16
2023-12-11T22:39:46.181Z,97899.20
2023-12-11T22:42:14.466Z,97896.69
2023-12-11T22:44:43.504Z,97901.32
2023-12-11T22:47:12.113Z,97901.45
2023-12-11T22:49:40.479Z,97902.29
2023-12-11T22:52:08.893Z,97898.62
2023-12-11T22:54:37.297Z,97897.05
2023-12-11T22:57:05.721Z,97900.39
2023-12-11T22:59:34.264Z,97901.14
2023-12-11T23:02:04.421Z,97897.98
2023-12-11T23:04:33.257Z,97900.84
2023-12-11T23:07:01.625Z,97901.96
2023-12-11T23:09:29.993Z,97905.40
2023-12-11T23:11:58.432Z,97905.73
2023-12-11T23:14:26.791Z,97909.92
2023-12-11T23:16:55.225Z,97915.01
2023-12-11T23:19:23.705Z,97918.61
2023-12-11T23:21:52.191Z,97922.41
2023-12-11T23:24:20.565Z,97921.52
2023-12-11T23:26:48.849Z,97914.81
2023-12-11T23:29:17.103Z,97918.91
2023-12-11T23:31:46.387Z,97922.62
2023-12-11T23:34:15.892Z,97926.04
2023-12-11T23:36:44.261Z,97930.91
2023-12-11T23:39:13.078Z,97936.28
2023-12-11T23:41:42.510Z,97936.26
2023-12-11T23:44:11.174Z,97935.33
2023-12-11T23:46:39.707Z,97936.41
2023-12-11T23:49:08.135Z,97938.07
2023-12-11T23:51:36.524Z,97942.30
2023-12-11T23:54:04.908Z,97942.52
2023-12-11T23:56:33.204Z,97944.27
2023-12-11T23:59:01.695Z,97942.60
